createdAt,value
2019-05-15T00:01:05.315Z,94.50
2019-05-15T00:03:10.265Z,95.10
2019-05-15T00:05:15.155Z,95.00
2019-05-15T00:07:19.943Z,96.00
2019-05-15T00:09:24.695Z,95.90
2019-05-15T00:11:29.370Z,96.20
2019-05-15T00:13:35.299Z,95.60
2019-05-15T00:15:40.433Z,95.40
2019-05-15T00:17:48.318Z,95.40
2019-05-15T00:19:52.815Z,95.40
2019-05-15T00:21:58.561Z,95.60
2019-05-15T00:24:03.328Z,95.80
2019-05-15T00:26:09.193Z,96.10
2019-05-15T00:28:14.067Z,96.40
2019-05-15T00:30:18.873Z,96.20
2019-05-15T00:32:23.473Z,96.10
2019-05-15T00:34:28.637Z,96.20
2019-05-15T00:36:33.917Z,96.70
2019-05-15T00:38:39.135Z,96.30
2019-05-15T00:40:44.168Z,96.30
2019-05-15T00:42:48.984Z,96.40
2019-05-15T00:44:53.486Z,96.70
2019-05-15T00:46:58.377Z,96.80
2019-05-15T00:49:03.692Z,96.80
2019-05-15T00:51:08.517Z,96.50
2019-05-15T00:53:13.425Z,96.20
2019-05-15T00:55:19.122Z,96.00
2019-05-15T00:57:24.342Z,95.80
2019-05-15T00:59:30.000Z,95.60
2019-05-15T01:01:35.135Z,95.40
2019-05-15T01:03:39.674Z,95.50
2019-05-15T01:05:50.383Z,95.50
2019-05-15T01:07:55.930Z,95.20
2019-05-15T01:10:01.545Z,95.20
2019-05-15T01:12:06.086Z,94.90
2019-05-15T01:14:12.167Z,94.90
2019-05-15T01:16:18.609Z,94.90
2019-05-15T01:18:24.112Z,95.10
2019-05-15T01:20:28.673Z,95.10
2019-05-15T01:22:33.497Z,95.20
2019-05-15T01:24:38.887Z,94.90
2019-05-15T01:26:43.661Z,94.90
2019-05-15T01:28:49.503Z,95.20
2019-05-15T01:30:54.345Z,95.00
2019-05-15T01:32:59.186Z,95.10
2019-05-15T01:35:03.684Z,95.20
2019-05-15T01:37:08.616Z,95.30
2019-05-15T01:39:13.426Z,95.10
2019-05-15T01:41:18.941Z,95.00
2019-05-15T01:43:23.587Z,94.90
2019-05-15T01:45:29.561Z,95.20
2019-05-15T01:47:34.514Z,95.50
2019-05-15T01:49:39.955Z,95.30
2019-05-15T01:51:44.820Z,95.40
2019-05-15T01:53:50.040Z,95.30
2019-05-15T01:55:54.941Z,95.60
2019-05-15T01:57:59.889Z,95.60
2019-05-15T02:00:04.849Z,95.30
2019-05-15T02:02:09.675Z,95.20
2019-05-15T02:04:19.614Z,95.20
2019-05-15T02:06:24.557Z,95.70
2019-05-15T02:08:31.273Z,95.30
2019-05-15T02:10:38.757Z,95.70
2019-05-15T02:12:42.225Z,96.10
2019-05-15T02:14:48.545Z,96.50
2019-05-15T02:16:52.824Z,96.80
2019-05-15T02:18:58.248Z,96.20
2019-05-15T02:21:06.227Z,96.80
2019-05-15T02:23:11.757Z,96.40
2019-05-15T02:25:18.419Z,96.00
2019-05-15T02:27:22.589Z,96.40
2019-05-15T02:29:28.616Z,96.70
2019-05-15T02:31:33.302Z,96.20
2019-05-15T02:33:40.129Z,95.90
2019-05-15T02:35:44.842Z,95.80
2019-05-15T02:37:49.272Z,96.20
2019-05-15T02:39:54.156Z,96.00
2019-05-15T02:41:59.499Z,95.90
2019-05-15T02:44:04.077Z,96.20
2019-05-15T02:46:10.186Z,96.20
2019-05-15T02:48:15.502Z,96.30
2019-05-15T02:50:20.611Z,96.30
2019-05-15T02:52:29.522Z,96.50
2019-05-15T02:54:34.479Z,96.70
2019-05-15T02:56:39.988Z,96.60
2019-05-15T02:58:44.630Z,96.80
2019-05-15T03:00:53.138Z,97.10
2019-05-15T03:02:55.218Z,97.10
2019-05-15T03:05:01.157Z,97.20
2019-05-15T03:07:09.627Z,97.20
2019-05-15T03:09:14.086Z,97.30
2019-05-15T03:11:19.151Z,97.50
2019-05-15T03:13:25.048Z,97.70
2019-05-15T03:15:30.748Z,97.80
2019-05-15T03:17:39.758Z,98.00
2019-05-15T03:19:43.320Z,98.00
2019-05-15T03:21:49.636Z,98.80
2019-05-15T03:23:54.525Z,99.00
2019-05-15T03:26:04.421Z,99.30
2019-05-15T03:28:10.524Z,99.90
2019-05-15T03:30:21.159Z,99.90
2019-05-15T03:32:32.697Z,99.90
2019-05-15T03:34:38.139Z,99.90
2019-05-15T03:36:45.446Z,99.90
2019-05-15T03:38:46.168Z,99.90
2019-05-15T03:40:51.340Z,99.90
2019-05-15T03:42:59.329Z,99.90
2019-05-15T03:45:03.167Z,99.90
2019-05-15T03:47:09.245Z,99.90
2019-05-15T03:49:13.903Z,99.90
2019-05-15T03:51:20.170Z,99.90
2019-05-15T03:53:24.707Z,99.90
2019-05-15T03:55:32.747Z,99.90
2019-05-15T03:59:35.524Z,99.90
2019-05-15T04:01:43.757Z,99.90
2019-05-15T04:03:49.543Z,99.90
2019-05-15T04:05:53.438Z,99.90
2019-05-15T04:08:00.399Z,99.90
2019-05-15T04:10:09.554Z,99.90
2019-05-15T04:12:12.776Z,99.90
2019-05-15T04:14:19.401Z,99.90
2019-05-15T04:16:24.999Z,99.90
2019-05-15T04:18:30.410Z,99.90
2019-05-15T04:20:36.191Z,99.90
2019-05-15T04:22:42.757Z,99.90
2019-05-15T04:24:49.522Z,99.90
2019-05-15T04:26:59.571Z,99.90
2019-05-15T04:29:02.485Z,99.90
2019-05-15T04:31:09.429Z,99.90
2019-05-15T04:33:19.708Z,99.90
2019-05-15T04:35:22.331Z,99.80
2019-05-15T04:37:29.667Z,99.60
2019-05-15T04:39:33.458Z,99.70
2019-05-15T04:41:39.249Z,99.50
2019-05-15T04:43:45.244Z,99.80
2019-05-15T04:45:50.004Z,99.80
2019-05-15T04:47:54.891Z,99.40
2019-05-15T04:49:59.415Z,99.10
2019-05-15T04:52:09.756Z,99.00
2019-05-15T04:54:13.456Z,98.90
2019-05-15T04:56:19.323Z,98.40
2019-05-15T04:58:23.989Z,98.30
2019-05-15T05:00:51.299Z,98.10
2019-05-15T05:02:58.841Z,97.80
2019-05-15T05:05:03.653Z,97.60
2019-05-15T05:07:09.691Z,98.00
2019-05-15T05:09:14.478Z,97.80
2019-05-15T05:11:23.658Z,97.60
2019-05-15T05:13:28.664Z,97.60
2019-05-15T05:15:33.083Z,97.70
2019-05-15T05:17:39.152Z,97.40
2019-05-15T05:19:43.971Z,97.40
2019-05-15T05:21:50.139Z,97.10
2019-05-15T05:23:54.823Z,97.30
2019-05-15T05:25:59.716Z,97.20
2019-05-15T05:28:04.740Z,97.30
2019-05-15T05:30:11.507Z,97.10
2019-05-15T05:32:30.535Z,97.10
2019-05-15T05:34:22.366Z,97.10
2019-05-15T05:36:27.916Z,97.10
2019-05-15T05:38:32.965Z,97.40
2019-05-15T05:40:38.581Z,97.50
2019-05-15T05:42:43.083Z,97.10
2019-05-15T05:44:50.431Z,97.30
2019-05-15T05:46:58.120Z,96.90
2019-05-15T05:49:01.933Z,96.60
2019-05-15T05:51:08.992Z,96.10
2019-05-15T05:53:13.474Z,95.90
2019-05-15T05:55:18.015Z,94.70
2019-05-15T05:57:22.942Z,94.10
2019-05-15T05:59:33.853Z,93.30
2019-05-15T06:01:43.724Z,93.10
2019-05-15T06:03:45.001Z,91.20
2019-05-15T06:05:50.084Z,90.60
2019-05-15T06:07:55.192Z,90.60
2019-05-15T06:09:59.847Z,90.40
2019-05-15T06:12:07.704Z,90.00
2019-05-15T06:14:18.119Z,87.40
2019-05-15T06:16:23.765Z,86.40
2019-05-15T06:18:31.012Z,86.20
2019-05-15T06:20:35.595Z,85.80
2019-05-15T06:22:41.706Z,85.60
2019-05-15T06:24:48.394Z,84.00
2019-05-15T06:26:53.115Z,83.80
2019-05-15T06:28:58.331Z,84.50
2019-05-15T06:31:05.339Z,83.10
2019-05-15T06:33:13.518Z,82.00
2019-05-15T06:35:19.682Z,82.10
2019-05-15T06:37:24.405Z,80.70
2019-05-15T06:39:29.261Z,80.40
2019-05-15T06:41:34.621Z,80.30
2019-05-15T06:43:39.732Z,79.30
2019-05-15T06:45:45.559Z,77.60
2019-05-15T06:47:52.072Z,78.20
2019-05-15T06:49:57.960Z,80.20
2019-05-15T06:52:05.087Z,78.70
2019-05-15T06:54:10.617Z,76.80
2019-05-15T06:56:18.551Z,75.10
2019-05-15T06:58:25.159Z,72.40
2019-05-15T07:00:30.329Z,71.20
2019-05-15T07:02:34.831Z,72.30
2019-05-15T07:04:39.609Z,71.40
2019-05-15T07:06:44.550Z,69.00
2019-05-15T07:08:49.809Z,69.90
2019-05-15T07:10:54.843Z,67.90
2019-05-15T07:12:59.874Z,66.20
2019-05-15T07:15:05.337Z,66.40
2019-05-15T07:17:12.271Z,65.50
2019-05-15T07:19:19.030Z,65.00
2019-05-15T07:21:23.129Z,64.40
2019-05-15T07:23:30.758Z,64.50
2019-05-15T07:25:34.919Z,63.20
2019-05-15T07:27:39.664Z,60.50
2019-05-15T07:29:44.506Z,60.40
2019-05-15T07:31:49.231Z,58.60
2019-05-15T07:33:54.799Z,60.00
2019-05-15T07:36:00.118Z,60.20
2019-05-15T07:38:04.544Z,61.50
2019-05-15T07:40:10.375Z,61.00
2019-05-15T07:42:14.950Z,60.30
2019-05-15T07:44:19.766Z,60.50
2019-05-15T07:46:24.319Z,58.70
2019-05-15T07:48:29.258Z,57.20
2019-05-15T07:50:34.055Z,54.40
2019-05-15T07:52:39.622Z,53.10
2019-05-15T07:54:44.341Z,52.70
2019-05-15T07:56:49.299Z,52.80
2019-05-15T07:58:53.918Z,52.90
2019-05-15T08:00:59.236Z,53.10
2019-05-15T08:03:04.402Z,53.40
2019-05-15T08:05:10.205Z,52.70
2019-05-15T08:07:14.749Z,53.40
2019-05-15T08:09:19.206Z,54.20
2019-05-15T08:11:42.365Z,53.90
2019-05-15T08:14:22.097Z,53.80
2019-05-15T08:16:28.919Z,53.90
2019-05-15T08:18:33.829Z,54.50
2019-05-15T08:20:38.687Z,55.60
2019-05-15T08:22:45.835Z,55.50
2019-05-15T08:24:50.412Z,56.00
2019-05-15T08:26:57.942Z,54.90
2019-05-15T08:29:03.076Z,53.30
2019-05-15T08:31:10.138Z,52.20
2019-05-15T08:33:14.670Z,52.40
2019-05-15T08:35:20.407Z,51.60
2019-05-15T08:37:25.303Z,51.20
2019-05-15T08:39:30.388Z,51.00
2019-05-15T08:41:34.978Z,50.50
2019-05-15T08:43:39.798Z,50.50
2019-05-15T08:45:44.792Z,49.80
2019-05-15T08:47:49.595Z,49.70
2019-05-15T08:49:54.018Z,49.40
2019-05-15T08:51:58.834Z,50.70
2019-05-15T08:54:08.589Z,50.20
2019-05-15T08:56:14.836Z,49.20
2019-05-15T08:58:20.522Z,49.40
2019-05-15T09:00:25.453Z,48.10
2019-05-15T09:02:30.143Z,47.60
2019-05-15T09:04:35.266Z,46.90
2019-05-15T09:06:41.454Z,46.60
2019-05-15T09:08:48.878Z,44.80
2019-05-15T09:10:52.282Z,42.50
2019-05-15T09:12:58.666Z,42.10
2019-05-15T09:15:04.737Z,43.10
2019-05-15T09:17:09.450Z,43.30
2019-05-15T09:19:14.706Z,42.90
2019-05-15T09:21:19.517Z,43.60
2019-05-15T09:23:24.077Z,43.00
2019-05-15T09:25:28.865Z,42.40
2019-05-15T09:27:34.614Z,43.00
2019-05-15T09:29:40.099Z,42.50
2019-05-15T09:31:44.932Z,42.30
2019-05-15T09:33:50.652Z,42.60
2019-05-15T09:35:58.331Z,43.70
2019-05-15T09:38:03.411Z,43.20
2019-05-15T09:40:09.160Z,42.50
2019-05-15T09:42:13.910Z,42.90
2019-05-15T09:44:21.782Z,42.40
2019-05-15T09:46:28.982Z,43.30
2019-05-15T09:48:33.925Z,44.00
2019-05-15T09:50:39.599Z,44.70
2019-05-15T09:52:45.033Z,44.90
2019-05-15T09:54:49.914Z,45.40
2019-05-15T09:56:54.393Z,45.00
2019-05-15T09:58:58.936Z,45.50
2019-05-15T10:01:08.538Z,46.10
2019-05-15T10:03:12.910Z,45.90
2019-05-15T10:05:18.781Z,46.80
2019-05-15T10:07:23.561Z,47.50
2019-05-15T10:09:28.572Z,47.90
2019-05-15T10:11:33.643Z,46.70
2019-05-15T10:13:38.482Z,46.00
2019-05-15T10:15:43.401Z,45.40
2019-05-15T10:17:50.880Z,44.90
2019-05-15T10:19:54.896Z,45.60
2019-05-15T10:22:04.750Z,46.60
2019-05-15T10:24:09.650Z,46.70
2019-05-15T10:26:14.591Z,46.90
2019-05-15T10:28:20.385Z,47.30
2019-05-15T10:30:28.248Z,47.30
2019-05-15T10:32:32.274Z,48.20
2019-05-15T10:34:38.437Z,48.40
2019-05-15T10:36:43.398Z,48.40
2019-05-15T10:38:49.059Z,49.00
2019-05-15T10:41:03.784Z,49.30
2019-05-15T10:43:09.413Z,49.40
2019-05-15T10:45:14.189Z,49.30
2019-05-15T10:47:18.724Z,49.40
2019-05-15T10:49:23.695Z,49.80
2019-05-15T10:51:28.800Z,48.90
2019-05-15T10:53:33.371Z,48.60
2019-05-15T10:55:39.405Z,48.30
2019-05-15T10:57:44.899Z,49.40
2019-05-15T10:59:49.831Z,49.20
2019-05-15T11:01:54.995Z,49.10
2019-05-15T11:06:09.189Z,48.70
2019-05-15T11:08:13.817Z,49.70
2019-05-15T11:10:19.460Z,50.00
2019-05-15T11:12:23.955Z,48.70
2019-05-15T11:14:29.301Z,48.90
2019-05-15T11:16:33.980Z,49.30
2019-05-15T11:18:39.404Z,49.00
2019-05-15T11:20:44.165Z,49.20
2019-05-15T11:22:50.045Z,50.50
2019-05-15T11:24:54.762Z,48.10
2019-05-15T11:27:00.664Z,46.70
2019-05-15T11:29:09.676Z,45.80
2019-05-15T11:31:16.585Z,46.50
2019-05-15T11:33:21.560Z,46.20
2019-05-15T11:35:28.536Z,46.90
2019-05-15T11:37:33.175Z,46.10
2019-05-15T11:39:46.206Z,45.10
2019-05-15T11:41:49.629Z,46.20
2019-05-15T11:43:54.413Z,47.40
2019-05-15T11:45:59.296Z,46.20
2019-05-15T11:48:03.856Z,46.80
2019-05-15T11:50:09.047Z,46.70
2019-05-15T11:52:14.141Z,47.40
2019-05-15T11:54:19.241Z,47.50
2019-05-15T11:56:24.063Z,46.70
2019-05-15T11:58:30.036Z,45.60
2019-05-15T12:00:35.049Z,46.00
2019-05-15T12:02:39.876Z,45.50
2019-05-15T12:04:44.473Z,45.00
2019-05-15T12:06:58.814Z,43.70
2019-05-15T12:08:55.488Z,44.40
2019-05-15T12:10:59.939Z,44.90
2019-05-15T12:13:04.400Z,46.60
2019-05-15T12:15:09.436Z,44.30
2019-05-15T12:17:15.529Z,44.50
2019-05-15T12:19:20.330Z,45.10
2019-05-15T12:21:25.144Z,44.40
2019-05-15T12:23:30.045Z,44.20
2019-05-15T12:25:35.509Z,43.50
2019-05-15T12:27:40.545Z,42.80
2019-05-15T12:29:45.517Z,42.50
2019-05-15T12:31:50.988Z,41.80
2019-05-15T12:33:58.184Z,41.50
2019-05-15T12:36:02.114Z,42.10
2019-05-15T12:38:10.329Z,42.20
2019-05-15T13:01:42.990Z,41.80
2019-05-15T13:03:49.997Z,41.10
2019-05-15T13:05:58.420Z,42.90
2019-05-15T13:08:03.228Z,43.10
2019-05-15T13:10:12.023Z,40.40
2019-05-15T13:12:18.796Z,42.20
2019-05-15T13:14:23.197Z,43.40
2019-05-15T13:16:28.898Z,42.50
2019-05-15T13:18:33.780Z,42.50
2019-05-15T13:20:38.552Z,41.90
2019-05-15T13:22:43.024Z,42.30
2019-05-15T13:24:48.871Z,42.30
2019-05-15T13:26:53.463Z,42.00
2019-05-15T13:28:58.457Z,42.30
2019-05-15T13:31:05.460Z,42.50
2019-05-15T13:33:10.896Z,41.80
2019-05-15T13:35:20.004Z,41.40
2019-05-15T13:37:28.151Z,41.60
2019-05-15T13:39:31.704Z,41.50
2019-05-15T13:41:38.417Z,40.60
2019-05-15T13:43:42.307Z,40.80
2019-05-15T13:45:48.919Z,41.10
2019-05-15T13:47:52.853Z,41.70
2019-05-15T13:49:58.636Z,41.20
2019-05-15T13:52:03.223Z,41.80
2019-05-15T13:54:08.691Z,42.00
2019-05-15T13:56:13.479Z,41.20
2019-05-15T13:58:18.038Z,41.40
2019-05-15T14:00:28.852Z,41.70
2019-05-15T14:02:32.563Z,41.70
2019-05-15T14:04:38.654Z,42.10
2019-05-15T14:06:43.710Z,41.40
2019-05-15T14:08:48.767Z,41.70
2019-05-15T14:10:53.466Z,40.70
2019-05-15T14:12:58.376Z,41.10
2019-05-15T14:15:02.907Z,41.00
2019-05-15T14:17:09.234Z,40.70
2019-05-15T14:19:13.639Z,41.10
2019-05-15T14:21:20.008Z,41.30
2019-05-15T14:23:24.613Z,40.60
2019-05-15T14:25:30.590Z,40.80
2019-05-15T14:27:35.350Z,40.90
2019-05-15T14:29:39.932Z,39.90
2019-05-15T14:31:44.294Z,40.40
2019-05-15T14:33:49.903Z,40.80
2019-05-15T14:35:54.357Z,41.50
2019-05-15T14:38:05.876Z,41.90
2019-05-15T14:40:05.295Z,39.80
2019-05-15T14:42:10.191Z,40.10
2019-05-15T14:44:18.675Z,40.70
2019-05-15T14:46:20.665Z,41.30
2019-05-15T14:48:25.346Z,41.20
2019-05-15T14:50:30.165Z,41.60
2019-05-15T14:52:34.908Z,41.10
2019-05-15T14:54:39.371Z,39.60
2019-05-15T14:56:43.969Z,39.30
2019-05-15T14:58:48.500Z,39.80
2019-05-15T15:00:53.167Z,41.40
2019-05-15T15:02:58.761Z,41.50
2019-05-15T15:05:04.647Z,40.50
2019-05-15T15:07:09.799Z,40.50
2019-05-15T15:09:15.784Z,41.60
2019-05-15T15:11:22.747Z,40.70
2019-05-15T15:13:29.526Z,40.20
2019-05-15T15:15:34.283Z,39.50
2019-05-15T15:17:39.796Z,38.90
2019-05-15T15:19:44.400Z,39.10
2019-05-15T15:21:49.543Z,38.80
2019-05-15T15:23:54.015Z,39.10
2019-05-15T15:25:59.016Z,39.30
2019-05-15T15:28:03.604Z,39.20
2019-05-15T15:30:10.212Z,39.20
2019-05-15T15:32:15.224Z,40.30
2019-05-15T15:34:19.941Z,41.50
2019-05-15T15:36:25.565Z,40.90
2019-05-15T15:38:40.187Z,39.90
2019-05-15T15:40:38.894Z,40.10
2019-05-15T15:42:43.827Z,39.40
2019-05-15T15:44:48.912Z,38.60
2019-05-15T15:46:54.091Z,39.00
2019-05-15T15:48:59.314Z,39.30
2019-05-15T15:51:04.896Z,38.50
2019-05-15T15:53:09.389Z,39.10
2019-05-15T15:55:14.112Z,39.60
2019-05-15T15:57:19.483Z,39.30
2019-05-15T15:59:24.126Z,38.60
2019-05-15T16:01:31.212Z,39.40
2019-05-15T16:03:38.070Z,39.40
2019-05-15T16:05:42.911Z,37.90
2019-05-15T16:07:48.479Z,38.50
2019-05-15T16:09:53.262Z,39.20
2019-05-15T16:11:58.348Z,40.30
2019-05-15T16:14:03.037Z,39.00
2019-05-15T16:16:08.546Z,39.10
2019-05-15T16:18:13.288Z,39.20
2019-05-15T16:20:18.898Z,38.70
2019-05-15T16:22:23.436Z,38.90
2019-05-15T16:24:29.297Z,38.40
2019-05-15T16:26:34.051Z,38.00
2019-05-15T16:28:38.896Z,39.00
2019-05-15T16:30:51.165Z,38.90
2019-05-15T16:32:50.821Z,38.70
2019-05-15T16:34:55.513Z,39.20
2019-05-15T16:37:02.071Z,38.80
2019-05-15T16:39:11.356Z,38.50
2019-05-15T16:41:14.063Z,38.10
2019-05-15T16:43:18.932Z,38.20
2019-05-15T16:45:23.477Z,38.00
2019-05-15T16:47:28.284Z,37.20
2019-05-15T16:49:32.818Z,37.10
2019-05-15T16:51:38.338Z,37.60
2019-05-15T16:53:42.844Z,37.60
2019-05-15T16:55:48.083Z,38.30
2019-05-15T16:57:52.668Z,38.50
2019-05-15T16:59:58.617Z,38.00
2019-05-15T17:02:03.171Z,38.00
2019-05-15T17:04:08.436Z,37.90
2019-05-15T17:06:13.070Z,36.60
2019-05-15T17:08:18.032Z,35.10
2019-05-15T17:10:22.797Z,34.90
2019-05-15T17:12:27.835Z,33.40
2019-05-15T17:14:32.799Z,33.90
2019-05-15T17:16:38.670Z,34.20
2019-05-15T17:18:43.481Z,33.40
2019-05-15T17:20:48.544Z,32.00
2019-05-15T17:22:53.031Z,32.40
2019-05-15T17:24:58.357Z,32.10
2019-05-15T17:27:04.261Z,32.80
2019-05-15T17:29:09.016Z,32.70
2019-05-15T17:31:14.840Z,32.40
2019-05-15T17:33:19.227Z,33.20
2019-05-15T17:35:23.679Z,33.00
2019-05-15T17:37:29.591Z,33.20
2019-05-15T17:39:38.895Z,34.00
2019-05-15T17:41:42.952Z,34.40
2019-05-15T17:43:48.587Z,34.70
2019-05-15T17:45:53.103Z,35.10
2019-05-15T17:47:58.582Z,35.40
2019-05-15T17:50:03.650Z,35.60
2019-05-15T17:52:08.869Z,36.20
2019-05-15T17:54:13.431Z,35.30
2019-05-15T17:56:18.250Z,36.30
2019-05-15T17:58:22.703Z,36.80
2019-05-15T18:00:28.627Z,37.40
2019-05-15T18:02:33.483Z,38.20
2019-05-15T18:04:38.696Z,38.80
2019-05-15T18:09:10.522Z,39.60
2019-05-15T18:11:15.878Z,40.50
2019-05-15T18:13:21.212Z,41.00
2019-05-15T18:15:26.194Z,41.20
2019-05-15T18:17:30.966Z,40.60
2019-05-15T18:19:35.541Z,40.50
2019-05-15T18:21:41.731Z,41.50
2019-05-15T18:23:48.659Z,41.40
2019-05-15T18:25:52.428Z,41.50
2019-05-15T18:27:59.171Z,41.60
2019-05-15T18:30:03.452Z,41.90
2019-05-15T18:32:10.170Z,42.10
2019-05-15T18:34:15.093Z,42.50
2019-05-15T18:36:19.919Z,42.70
2019-05-15T18:38:25.173Z,43.20
2019-05-15T18:40:30.746Z,43.10
2019-05-15T18:42:35.509Z,43.50
2019-05-15T18:44:40.356Z,43.60
2019-05-15T18:46:46.012Z,43.70
2019-05-15T18:48:50.644Z,44.10
2019-05-15T18:50:55.704Z,44.50
2019-05-15T18:55:11.309Z,44.80
2019-05-15T18:57:15.945Z,44.90
2019-05-15T18:59:20.578Z,45.00
2019-05-15T19:01:25.083Z,45.20
2019-05-15T19:03:29.546Z,45.40
2019-05-15T19:05:34.391Z,45.60
2019-05-15T19:07:39.333Z,46.00
2019-05-15T19:09:44.568Z,46.30
2019-05-15T19:11:49.552Z,46.50
2019-05-15T19:13:55.852Z,46.80
2019-05-15T19:16:00.423Z,47.40
2019-05-15T19:18:04.997Z,47.50
2019-05-15T19:20:10.070Z,47.70
2019-05-15T19:22:19.107Z,47.80
2019-05-15T19:24:22.949Z,48.00
2019-05-15T19:26:28.994Z,48.20
2019-05-15T19:28:33.665Z,48.30
2019-05-15T19:30:39.016Z,48.50
2019-05-15T19:32:44.174Z,48.80
2019-05-15T19:34:49.086Z,48.70
2019-05-15T19:36:54.844Z,48.80
2019-05-15T19:38:59.399Z,49.20
2019-05-15T19:41:06.670Z,49.20
2019-05-15T19:43:14.157Z,49.40
2019-05-15T19:45:19.055Z,49.80
2019-05-15T19:47:26.518Z,49.90
2019-05-15T19:49:38.642Z,50.80
2019-05-15T19:51:49.985Z,50.60
2019-05-15T19:54:24.333Z,50.80
2019-05-15T19:56:29.831Z,51.00
2019-05-15T19:58:35.411Z,51.20
2019-05-15T20:00:42.588Z,51.20
2019-05-15T20:02:48.610Z,51.60
2019-05-15T20:04:58.294Z,51.80
2019-05-15T20:07:04.833Z,51.80
2019-05-15T20:09:12.491Z,52.20
2019-05-15T20:11:18.415Z,52.60
2019-05-15T20:13:23.711Z,52.80
2019-05-15T20:15:28.958Z,52.80
2019-05-15T20:17:35.384Z,53.10
2019-05-15T20:19:42.560Z,53.60
2019-05-15T20:21:55.318Z,53.60
2019-05-15T20:24:22.860Z,53.60
2019-05-15T20:26:33.169Z,53.60
2019-05-15T20:28:57.691Z,53.70
2019-05-15T20:30:55.334Z,53.80
2019-05-15T20:33:02.288Z,54.00
2019-05-15T20:35:12.418Z,54.10
2019-05-15T20:38:08.041Z,54.60
2019-05-15T20:40:35.164Z,54.60
2019-05-15T20:42:54.519Z,55.00
2019-05-15T20:45:01.186Z,55.10
2019-05-15T20:47:18.908Z,55.50
2019-05-15T20:49:25.285Z,55.80
2019-05-15T20:51:38.973Z,56.30
2019-05-15T20:53:48.997Z,56.40
2019-05-15T20:55:59.041Z,57.00
2019-05-15T20:58:04.396Z,57.40
2019-05-15T21:00:11.223Z,57.70
2019-05-15T21:02:18.576Z,58.20
2019-05-15T21:04:25.040Z,58.30
2019-05-15T21:06:30.526Z,58.40
2019-05-15T21:08:37.917Z,58.20
2019-05-15T21:10:43.209Z,58.50
2019-05-15T21:12:49.039Z,58.60
2019-05-15T21:14:58.208Z,58.50
2019-05-15T21:17:02.995Z,58.70
2019-05-15T21:19:09.678Z,59.10
2019-05-15T21:21:14.719Z,59.10
2019-05-15T21:23:19.803Z,59.30
2019-05-15T21:25:24.959Z,59.40
2019-05-15T21:27:32.762Z,59.50
2019-05-15T21:29:38.198Z,59.80
2019-05-15T21:31:42.326Z,60.10
2019-05-15T21:33:48.155Z,60.20
2019-05-15T21:35:53.346Z,60.70
2019-05-15T21:37:58.016Z,61.00
2019-05-15T21:40:02.767Z,61.50
2019-05-15T21:42:08.890Z,62.00
2019-05-15T21:44:14.743Z,62.20
2019-05-15T21:46:19.216Z,62.40
2019-05-15T21:48:23.834Z,62.40
2019-05-15T21:50:33.114Z,62.80
2019-05-15T21:52:45.776Z,62.90
2019-05-15T21:54:50.642Z,63.10
2019-05-15T21:57:12.845Z,63.60
2019-05-15T21:59:08.186Z,64.00
2019-05-15T22:01:13.000Z,64.30
2019-05-15T22:03:20.147Z,64.50
2019-05-15T22:05:25.013Z,65.00
2019-05-15T22:07:29.838Z,65.20
2019-05-15T22:09:38.087Z,65.90
2019-05-15T22:11:42.666Z,66.20
2019-05-15T22:13:48.612Z,66.40
2019-05-15T22:15:53.419Z,66.20
2019-05-15T22:17:58.697Z,65.90
2019-05-15T22:20:03.216Z,66.00
2019-05-15T22:22:08.739Z,65.60
2019-05-15T22:24:14.615Z,66.00
2019-05-15T22:26:21.619Z,66.50
2019-05-15T22:28:27.980Z,66.00
2019-05-15T22:30:32.755Z,66.50
2019-05-15T22:33:23.061Z,66.70
2019-05-15T22:36:09.200Z,66.80
2019-05-15T22:38:14.393Z,67.30
2019-05-15T22:41:28.409Z,67.50
2019-05-15T22:43:32.560Z,68.10
2019-05-15T22:45:37.905Z,68.40
2019-05-15T22:47:42.353Z,68.50
2019-05-15T22:49:48.507Z,68.30
2019-05-15T22:51:52.956Z,69.20
2019-05-15T22:53:58.070Z,69.00
2019-05-15T22:56:02.652Z,69.10
2019-05-15T22:58:08.710Z,69.50
2019-05-15T23:00:14.449Z,70.40
2019-05-15T23:02:23.495Z,70.20
2019-05-15T23:04:28.707Z,71.30
2019-05-15T23:06:33.281Z,71.70
2019-05-15T23:08:38.419Z,71.90
2019-05-15T23:10:43.090Z,72.50
2019-05-15T23:12:48.700Z,73.40
2019-05-15T23:17:59.905Z,73.60
2019-05-15T23:20:08.675Z,74.00
2019-05-15T23:22:13.275Z,74.30
2019-05-15T23:24:19.015Z,74.90
2019-05-15T23:26:23.381Z,75.00
2019-05-15T23:28:28.188Z,75.40
2019-05-15T23:30:32.719Z,76.50
2019-05-15T23:32:39.204Z,76.30
2019-05-15T23:34:43.732Z,76.40
2019-05-15T23:36:48.372Z,76.60
2019-05-15T23:38:53.188Z,77.10
2019-05-15T23:40:58.957Z,76.90
2019-05-15T23:43:05.573Z,77.10
2019-05-15T23:45:11.246Z,77.40
2019-05-15T23:47:17.982Z,78.10
2019-05-15T23:49:22.921Z,78.80
2019-05-15T23:51:28.032Z,79.50
2019-05-15T23:53:32.481Z,80.00
2019-05-15T23:55:36.994Z,80.60
2019-05-15T23:57:41.764Z,80.00
2019-05-15T23:59:47.730Z,80.90
